地図

経路データ

SID SEASON NUMBER BASIN SUBBASIN NAME ISO_TIME NATURE LAT LON WMO_WIND WMO_PRES WMO_AGENCY TRACK_TYPE DIST2LAND LANDFALL IFLAG USA_AGENCY USA_ATCF_ID USA_LAT USA_LON USA_RECORD USA_STATUS USA_WIND USA_PRES USA_SSHS USA_R34_NE USA_R34_SE USA_R34_SW USA_R34_NW USA_R50_NE USA_R50_SE USA_R50_SW USA_R50_NW USA_R64_NE USA_R64_SE USA_R64_SW USA_R64_NW USA_POCI USA_ROCI USA_RMW USA_EYE TOKYO_LAT TOKYO_LON TOKYO_GRADE TOKYO_WIND TOKYO_PRES TOKYO_R50_DIR TOKYO_R50_LONG TOKYO_R50_SHORT TOKYO_R30_DIR TOKYO_R30_LONG TOKYO_R30_SHORT TOKYO_LAND CMA_LAT CMA_LON CMA_CAT CMA_WIND CMA_PRES HKO_LAT HKO_LON HKO_CAT HKO_WIND HKO_PRES NEWDELHI_LAT NEWDELHI_LON NEWDELHI_GRADE NEWDELHI_WIND NEWDELHI_PRES NEWDELHI_CI NEWDELHI_DP NEWDELHI_POCI REUNION_LAT REUNION_LON REUNION_TYPE REUNION_WIND REUNION_PRES REUNION_TNUM REUNION_CI REUNION_RMW REUNION_R34_NE REUNION_R34_SE REUNION_R34_SW REUNION_R34_NW REUNION_R50_NE REUNION_R50_SE REUNION_R50_SW REUNION_R50_NW REUNION_R64_NE REUNION_R64_SE REUNION_R64_SW REUNION_R64_NW BOM_LAT BOM_LON BOM_TYPE BOM_WIND BOM_PRES BOM_TNUM BOM_CI BOM_RMW BOM_R34_NE BOM_R34_SE BOM_R34_SW BOM_R34_NW BOM_R50_NE BOM_R50_SE BOM_R50_SW BOM_R50_NW BOM_R64_NE BOM_R64_SE BOM_R64_SW BOM_R64_NW BOM_ROCI BOM_POCI BOM_EYE BOM_POS_METHOD BOM_PRES_METHOD NADI_LAT NADI_LON NADI_CAT NADI_WIND NADI_PRES WELLINGTON_LAT WELLINGTON_LON WELLINGTON_WIND WELLINGTON_PRES DS824_LAT DS824_LON DS824_STAGE DS824_WIND DS824_PRES TD9636_LAT TD9636_LON TD9636_STAGE TD9636_WIND TD9636_PRES TD9635_LAT TD9635_LON TD9635_WIND TD9635_PRES TD9635_ROCI NEUMANN_LAT NEUMANN_LON NEUMANN_CLASS NEUMANN_WIND NEUMANN_PRES MLC_LAT MLC_LON MLC_CLASS MLC_WIND MLC_PRES USA_GUST BOM_GUST BOM_GUST_PER REUNION_GUST REUNION_GUST_PER USA_SEAHGT USA_SEARAD_NE USA_SEARAD_SE USA_SEARAD_SW USA_SEARAD_NW STORM_SPEED STORM_DIR
1903068S14056 1903 21 SI MM NOT_NAMED 1903-03-09 00:00:00 TS -13.5000 56.4000 main 663 595 _________O____ -1 -13.5000 56.4000 TC 13 256
1903068S14056 1903 21 SI MM NOT_NAMED 1903-03-09 03:00:00 TS -13.6654 55.7375 main 584 516 _________P____ -1 -13.6654 55.7375 TC 13 252
1903068S14056 1903 21 SI MM NOT_NAMED 1903-03-09 06:00:00 TS -13.9000 55.1000 main 516 444 _________O____ -1 -13.9000 55.1000 TC 13 244
1903068S14056 1903 21 SI MM NOT_NAMED 1903-03-09 09:00:00 TS -14.2549 54.5125 main 441 380 _________P____ -1 -14.2549 54.5125 TC 13 233
1903068S14056 1903 21 SI MM NOT_NAMED 1903-03-09 12:00:00 TS -14.7000 54.0000 main 380 333 _________O____ -1 -14.7000 54.0000 TC 13 225
1903068S14056 1903 21 SI MM NOT_NAMED 1903-03-09 15:00:00 TS -15.1774 53.5549 main 332 290 _________P____ -1 -15.1774 53.5549 TC 13 218
1903068S14056 1903 21 SI MM NOT_NAMED 1903-03-09 18:00:00 TS -15.7000 53.2000 main 291 272 _________O____ -1 -15.7000 53.2000 TC 12 210
1903068S14056 1903 21 SI MM NOT_NAMED 1903-03-09 21:00:00 TS -16.2199 52.9271 main 272 270 _________P____ -1 -16.2199 52.9271 TC 12 204
1903068S14056 1903 21 SI MM NOT_NAMED 1903-03-10 00:00:00 TS -16.8000 52.7000 main 279 274 _________O____ -1 -16.8000 52.7000 TC 13 201
1903068S14056 1903 21 SI MM NOT_NAMED 1903-03-10 03:00:00 TS -17.4701 52.4276 main 287 283 _________P____ -1 -17.4701 52.4276 TC 15 199
1903068S14056 1903 21 SI MM NOT_NAMED 1903-03-10 06:00:00 TS -18.2000 52.2000 main 291 285 _________O____ -1 -18.2000 52.2000 TC 15 193
1903068S14056 1903 21 SI MM NOT_NAMED 1903-03-10 09:00:00 TS -18.9500 52.0624 main 295 291 _________P____ -1 -18.9500 52.0624 TC 15 187
1903068S14056 1903 21 SI MM NOT_NAMED 1903-03-10 12:00:00 TS -19.7000 52.0000 main 314 314 _________O____ -1 -19.7000 52.0000 TC 15 183
1903068S14056 1903 21 SI MM NOT_NAMED 1903-03-10 15:00:00 TS -20.4075 51.9774 main 336 331 _________P____ -1 -20.4075 51.9774 TC 14 0
1903068S14056 1903 21 SI MM NOT_NAMED 1903-03-10 18:00:00 TS -21.1000 52.0000 main 331 331 _________O____ -1 -21.1000 52.0000 TC 14 178
1903068S14056 1903 21 SI MM NOT_NAMED 1903-03-10 21:00:00 TS -21.7925 52.0351 main 340 335 _________P____ -1 -21.7925 52.0351 TC 14 176
1903068S14056 1903 21 SI MM NOT_NAMED 1903-03-11 00:00:00 TS -22.5000 52.1000 main 356 356 _________O____ -1 -22.5000 52.1000 TC 15 174
1903068S14056 1903 21 SI MM NOT_NAMED 1903-03-11 03:00:00 TS -23.2425 52.1925 main 383 383 _________P____ -1 -23.2425 52.1925 TC 15 173
1903068S14056 1903 21 SI MM NOT_NAMED 1903-03-11 06:00:00 TS -24.0000 52.3000 main 431 431 _________O____ -1 -24.0000 52.3000 TC 15 173
1903068S14056 1903 21 SI MM NOT_NAMED 1903-03-11 09:00:00 TS -24.7650 52.3927 main 490 490 _________P____ -1 -24.7650 52.3927 TC 15 173
1903068S14056 1903 21 SI MM NOT_NAMED 1903-03-11 12:00:00 TS -25.5000 52.5000 main 531 531 _________O____ -1 -25.5000 52.5000 TC 14 171
1903068S14056 1903 21 SI MM NOT_NAMED 1903-03-11 15:00:00 TS -26.1650 52.6426 main 565 565 _________P____ -1 -26.1650 52.6426 TC 13 168
1903068S14056 1903 21 SI MM NOT_NAMED 1903-03-11 18:00:00 TS -26.8000 52.8000 main 604 604 _________O____ -1 -26.8000 52.8000 TC 13 168
1903068S14056 1903 21 SI MM NOT_NAMED 1903-03-11 21:00:00 TS -27.4275 52.9429 main 637 637 _________P____ -1 -27.4275 52.9429 TC 13 168
1903068S14056 1903 21 SI MM NOT_NAMED 1903-03-12 00:00:00 TS -28.1000 53.1000 main 689 689 _________O____ -1 -28.1000 53.1000 TC 15 168
1903068S14056 1903 21 SI MM NOT_NAMED 1903-03-12 03:00:00 TS -28.8850 53.2852 main 752 752 _________P____ -1 -28.8850 53.2852 TC 16 168
1903068S14056 1903 21 SI MM NOT_NAMED 1903-03-12 06:00:00 TS -29.7000 53.5000 main 820 820 _________O____ -1 -29.7000 53.5000 TC 16 166
1903068S14056 1903 21 SI MM NOT_NAMED 1903-03-12 09:00:00 TS -30.4725 53.7500 main 892 892 _________P____ -1 -30.4725 53.7500 TC 16 164
1903068S14056 1903 21 SI MM NOT_NAMED 1903-03-12 12:00:00 TS -31.2000 54.0000 main 965 965 _________O____ -1 -31.2000 54.0000 TC 15 165
1903068S14056 1903 21 SI MM NOT_NAMED 1903-03-12 15:00:00 TS -31.8649 54.2007 main 1033 1033 _________P____ -1 -31.8649 54.2007 TC 13 165
1903068S14056 1903 21 SI MM NOT_NAMED 1903-03-12 18:00:00 TS -32.5000 54.4000 main 1095 1095 _________O____ -1 -32.5000 54.4000 TC 13 164
1903068S14056 1903 21 SI MM NOT_NAMED 1903-03-12 21:00:00 TS -33.1452 54.6365 main 1157 1157 _________P____ -1 -33.1452 54.6365 TC 14 162
1903068S14056 1903 21 SI MM NOT_NAMED 1903-03-13 00:00:00 TS -33.8000 54.9000 main 1234 _________O____ -1 -33.8000 54.9000 TC 14 161

IBTrACS Databaseについて

本データベースは、米国NOAAが公開する1842年以降の世界の熱帯低気圧のベストトラックデータアーカイブInternational Best Track Archive for Climate Stewardship (IBTrACS)を、ウェブで閲覧しやすい形式に変換したものです。

最終更新日:2021-10-08